Time,TemperatureF,DewpointF,PressureIn,WindDirection,WindDirectionDegrees,WindSpeedMPH,WindSpeedGustMPH,Humidity,HourlyPrecipIn,Conditions,Clouds,dailyrainin,SolarRadiationWatts/m^2,SoftwareType,DateUTC
2014-08-30 00:03:00,58.0,33.0,-100.00,NW,315,8.0,19.0,38,0.00,,,0.00,0.000000,,2014-08-30 07:03:00,
2014-08-30 00:12:00,58.0,33.0,-100.00,NW,315,8.0,19.0,38,0.00,,,0.00,0.000000,,2014-08-30 07:12:00,
2014-08-30 00:31:00,55.0,31.0,-100.00,NW,307,8.0,17.0,39,0.00,,,0.00,0.000000,,2014-08-30 07:31:00,
2014-08-30 00:53:00,55.0,31.0,-100.00,NW,307,8.0,17.0,39,0.00,,,0.00,0.000000,,2014-08-30 07:53:00,
2014-08-30 01:22:00,55.0,31.0,-100.00,NW,307,8.0,17.0,39,0.00,,,0.00,0.000000,,2014-08-30 08:22:00,
2014-08-30 01:31:00,55.0,28.0,-100.00,WNW,299,13.0,19.0,35,0.00,,,0.00,0.000000,,2014-08-30 08:31:00,
2014-08-30 02:02:00,55.0,28.0,-100.00,WNW,299,13.0,19.0,35,0.00,,,0.00,0.000000,,2014-08-30 09:02:00,
2014-08-30 02:23:00,55.0,28.0,-100.00,WNW,299,13.0,19.0,35,0.00,,,0.00,0.000000,,2014-08-30 09:23:00,
2014-08-30 02:31:00,54.0,33.0,-100.00,NW,304,10.0,20.0,45,0.00,,,0.00,0.000000,,2014-08-30 09:31:00,
2014-08-30 02:54:00,54.0,33.0,-100.00,NW,304,10.0,20.0,45,0.00,,,0.00,0.000000,,2014-08-30 09:54:00,
2014-08-30 03:03:00,54.0,33.0,-100.00,NW,304,10.0,20.0,45,0.00,,,0.00,0.000000,,2014-08-30 10:03:00,
2014-08-30 03:23:00,54.0,33.0,-100.00,NW,304,10.0,20.0,45,0.00,,,0.00,0.000000,,2014-08-30 10:23:00,
2014-08-30 03:31:00,55.0,35.0,-100.00,NW,306,9.0,14.0,47,0.00,,,0.00,0.000000,,2014-08-30 10:31:00,
2014-08-30 03:54:00,55.0,35.0,-100.00,NW,306,9.0,14.0,47,0.00,,,0.00,0.000000,,2014-08-30 10:54:00,
2014-08-30 04:03:00,55.0,35.0,-100.00,NW,306,9.0,14.0,47,0.00,,,0.00,0.000000,,2014-08-30 11:03:00,
2014-08-30 04:12:00,55.0,35.0,-100.00,NW,306,9.0,14.0,47,0.00,,,0.00,0.000000,,2014-08-30 11:12:00,
2014-08-30 04:31:00,53.0,35.0,-100.00,WNW,302,11.0,13.0,51,0.00,,,0.00,0.000000,,2014-08-30 11:31:00,
2014-08-30 05:02:00,53.0,35.0,-100.00,WNW,302,11.0,13.0,51,0.00,,,0.00,0.000000,,2014-08-30 12:02:00,
2014-08-30 05:12:00,53.0,35.0,-100.00,WNW,302,11.0,13.0,51,0.00,,,0.00,0.000000,,2014-08-30 12:12:00,
2014-08-30 05:22:00,53.0,35.0,-100.00,WNW,302,11.0,13.0,51,0.00,,,0.00,0.000000,,2014-08-30 12:22:00,
2014-08-30 06:03:00,54.0,36.0,-100.00,WNW,303,10.0,13.0,50,0.00,,,0.00,0.000000,,2014-08-30 13:03:00,
2014-08-30 06:12:00,54.0,36.0,-100.00,WNW,303,10.0,13.0,50,0.00,,,0.00,0.000000,,2014-08-30 13:12:00,
2014-08-30 06:22:00,54.0,36.0,-100.00,WNW,303,10.0,13.0,50,0.00,,,0.00,0.000000,,2014-08-30 13:22:00,